Pagrindinis puslapis
METAR-TAF:

METAR-TAF

Oro uostai :

Aizavlis, Indija

platuma: 23-50-18N, ilguma: 92-37-13E, Aukštis: 405 m

Dabartinis oras

Ataskaita buvo paskelbta 7 valandos ir 4 minutes, ne 09:30 UTC
Vėjas 3 kt iš Šiaurės/Šiaurės Rytų
Temperatūra 25°C
Drėgmė 65%
Slėgis 1013 hPa
Matomumas: 4500 m
Išsisklaidę debesys ne aukštis 1800 ft
Išsisklaidę debesys ne aukštis 10000 ft
migla

METAR: VELP 190930Z 02003KT 4500 HZ SCT018 SCT100 25/18 Q1013 NOSIG

Laikas: 22:04 (16:34 UTC)

Prognozė

Ataskaita buvo paskelbta 8 valandos ir 34 minutes, ne 08:00 UTC
Prognozė galioja nuo 19 metu 09 UTC su 19 metu 18 UTC
Vėjas 4 kt iš Šiaurės/Šiaurės Rytų
Matomumas: 4500 m
Išsisklaidę debesys ne aukštis 1800 ft
Išsisklaidę debesys ne aukštis 10000 ft
migla
Tapsmas
nuo 19 metu 11 UTC su 19 metu 13 UTC
Matomumas: 4000 m
Mažai debesys ne aukštis 1800 ft
rūkana

TAF: VELP 190800Z 1909/1918 02004KT 4500 HZ SCT018 SCT100 BECMG 1911/1913 4000 BR FEW018

Orai ataskaitas ir orų prognozės (METAR, TAF).

turimą stotys yra geltonos ir raudonos taškus žemėlapyje.

Perkelti pele per norėdami pamatyti stoties vardą.

Tada spustelėkite, norėdami matyti oro stebėjimo ir prognozės.

Norėdami pakeisti žemėlapį: spustelėkite ant žalios mygtukų su juodo kryžiaus žemyn,; žalią mygtuką su brūkšneliu, jei norite nutolinti; arba žalių rodyklių gretimoms žemėlapius.


METAR-TAF: